Austin Golding — WDC8113 — position and weather

sailwx.info

Track history (hours):
 
Tides and Currents Weather Stations Pressure Air Temp Water Temp Dewpoint Dewpoint Depression Visibility Wind Speed Wind Dir Waves Ship Positions

Austin Golding

Owner: Golding Barge Line, Inc., Vicksburg, MS. More information available from US FCC via Universal Licensing System and Coast Guard Vessel Documentation Center.

Last reported at 2017-Sep-21 12:44 UTC. Time now 2017-Sep-23 14:55 UTC.
Position N 30°26' W 086°16'.

Length 211 m; draft 2.9 m.

Type: . MMSI: 367081860.

Date/timePositionNaut miles runAvg speedWind from/ knotsBaromVisibWave heightAir tempDewpointWater temp
2017-Sep-21 12:44N 30°26' W 086°16'1 5.7
2017-Sep-21 12:29N 30°26' W 086°18'3 5.7
2017-Sep-21 12:00N 30°26' W 086°21'3 5.8
2017-Sep-21 11:30N 30°26' W 086°24'3 5.8
2017-Sep-21 11:00N 30°26' W 086°28'3 5.5
2017-Sep-21 10:30N 30°26' W 086°31'3 5.8
2017-Sep-21 10:00N 30°24' W 086°34'9 4.6
2017-Sep-21 08:06N 30°24' W 086°44'0 4.7
2017-Sep-21 08:00N 30°24' W 086°44'2 3.7
2017-Sep-21 07:30N 30°24' W 086°46'0 0.2
2017-Sep-21 07:00N 30°24' W 086°47'1 1.1
2017-Sep-21 06:30N 30°24' W 086°47'2 3.0
2017-Sep-21 06:00N 30°24' W 086°49'3 5.4
2017-Sep-21 05:30N 30°24' W 086°52'3 5.6
2017-Sep-21 04:56N 30°23' W 086°56'  
2017-Sep-18 11:38N 30°24' W 086°54'1 6.7
2017-Sep-18 11:30N 30°24' W 086°53'3 6.7
2017-Sep-18 11:00N 30°24' W 086°50'3 6.8
2017-Sep-18 10:31N 30°24' W 086°46'10 6.0
2017-Sep-18 08:51N 30°24' W 086°34'2 7.1
2017-Sep-18 08:30N 30°25' W 086°32'4 7.2
2017-Sep-18 08:00N 30°26' W 086°27'4 7.4
2017-Sep-18 07:30N 30°26' W 086°23'4 7.3
2017-Sep-18 07:00N 30°26' W 086°19'4 7.3
2017-Sep-18 06:30N 30°27' W 086°15'7 6.8
2017-Sep-18 05:27N 30°23' W 086°08'7 0.2
2017-Sep-16 16:05N 30°26' W 086°15'1 5.7
2017-Sep-16 15:57N 30°27' W 086°15'3 6.2
2017-Sep-16 15:30N 30°26' W 086°19'3 6.1
2017-Sep-16 15:00N 30°26' W 086°22'3 6.2
2017-Sep-16 14:30N 30°26' W 086°26'3 6.4
2017-Sep-16 14:00N 30°26' W 086°29'3 6.2
2017-Sep-16 13:30N 30°25' W 086°33'3 5.7
2017-Sep-16 13:00N 30°24' W 086°36'7 5.1
2017-Sep-16 11:35N 30°24' W 086°44'0 5.3
2017-Sep-16 11:30N 30°24' W 086°45'2 3.9
2017-Sep-16 11:00N 30°24' W 086°47'0 0.4
2017-Sep-16 10:30N 30°24' W 086°47'0 0.3
2017-Sep-16 10:00N 30°24' W 086°47'2 4.1
2017-Sep-16 09:30N 30°24' W 086°49'3 6.1
2017-Sep-16 09:00N 30°24' W 086°52'  
Track history (hours):
 
Tides and Currents Weather Stations Pressure Air Temp Water Temp Dewpoint Dewpoint Depression Visibility Wind Speed Wind Dir Waves Ship Positions

Austin Golding

Owner: Golding Barge Line, Inc., Vicksburg, MS. More information available from US FCC via Universal Licensing System and Coast Guard Vessel Documentation Center.

Last reported at 2017-Sep-21 12:44 UTC. Time now 2017-Sep-23 14:55 UTC.
Position N 30°26' W 086°16'.

Length 211 m; draft 2.9 m.

Type: . MMSI: 367081860.

Date/timePositionNaut miles runAvg speedWind from/ knotsBaromVisibWave heightAir tempDewpointWater temp
2017-Sep-21 12:44N 30°26' W 086°16'1 5.7
2017-Sep-21 12:29N 30°26' W 086°18'3 5.7
2017-Sep-21 12:00N 30°26' W 086°21'3 5.8
2017-Sep-21 11:30N 30°26' W 086°24'3 5.8
2017-Sep-21 11:00N 30°26' W 086°28'3 5.5
2017-Sep-21 10:30N 30°26' W 086°31'3 5.8
2017-Sep-21 10:00N 30°24' W 086°34'9 4.6
2017-Sep-21 08:06N 30°24' W 086°44'0 4.7
2017-Sep-21 08:00N 30°24' W 086°44'2 3.7
2017-Sep-21 07:30N 30°24' W 086°46'0 0.2
2017-Sep-21 07:00N 30°24' W 086°47'1 1.1
2017-Sep-21 06:30N 30°24' W 086°47'2 3.0
2017-Sep-21 06:00N 30°24' W 086°49'3 5.4
2017-Sep-21 05:30N 30°24' W 086°52'3 5.6
2017-Sep-21 04:56N 30°23' W 086°56'  
2017-Sep-18 11:38N 30°24' W 086°54'1 6.7
2017-Sep-18 11:30N 30°24' W 086°53'3 6.7
2017-Sep-18 11:00N 30°24' W 086°50'3 6.8
2017-Sep-18 10:31N 30°24' W 086°46'10 6.0
2017-Sep-18 08:51N 30°24' W 086°34'2 7.1
2017-Sep-18 08:30N 30°25' W 086°32'4 7.2
2017-Sep-18 08:00N 30°26' W 086°27'4 7.4
2017-Sep-18 07:30N 30°26' W 086°23'4 7.3
2017-Sep-18 07:00N 30°26' W 086°19'4 7.3
2017-Sep-18 06:30N 30°27' W 086°15'7 6.8
2017-Sep-18 05:27N 30°23' W 086°08'7 0.2
2017-Sep-16 16:05N 30°26' W 086°15'1 5.7
2017-Sep-16 15:57N 30°27' W 086°15'3 6.2
2017-Sep-16 15:30N 30°26' W 086°19'3 6.1
2017-Sep-16 15:00N 30°26' W 086°22'3 6.2
2017-Sep-16 14:30N 30°26' W 086°26'3 6.4
2017-Sep-16 14:00N 30°26' W 086°29'3 6.2
2017-Sep-16 13:30N 30°25' W 086°33'3 5.7
2017-Sep-16 13:00N 30°24' W 086°36'7 5.1
2017-Sep-16 11:35N 30°24' W 086°44'0 5.3
2017-Sep-16 11:30N 30°24' W 086°45'2 3.9
2017-Sep-16 11:00N 30°24' W 086°47'0 0.4
2017-Sep-16 10:30N 30°24' W 086°47'0 0.3
2017-Sep-16 10:00N 30°24' W 086°47'2 4.1
2017-Sep-16 09:30N 30°24' W 086°49'3 6.1
2017-Sep-16 09:00N 30°24' W 086°52'  

Dump ship's entire track history